Aeroporto :
LOGIN :

Iscrizione | Disclaimer

   EN    FR    IT 

 










Sommario :    VFR   VFR Marginale   IFR   IFR Intensivo   IFR Molto Intensivo
Visibilità : 
Base nubi : 
>= 8 km
>= 3000ft
5 / 8 km
1000 / 3000 ft
1500m / 5 km
500 / 1000 ft
800 / 1500m
200 / 500 ft
< 800m
< 200 ft
Simboli :   Temporali  Nebbia  Neve Forte  Precipitazioni Forti  Vento > 20 kt
SIGMETs :   Varie  Temporali  Ghiacco  Turbolenza  Onda orograficha  Ceneri Vulcaniche






- Altitudine del aeroporto : 685 ft
- Codice IATA : VKO


UUWW - Vnukovo International

ULTIMO METAR :
  • 011200Z 22008MPS 9999 BKN045 02/M08 Q1003 R19/190050 NOSIG

METARs OBSOLETI :
  • 011130Z 22008G13MPS 9999 BKN041 02/M07 Q1003 R19/190050 NOSIG
  • 011100Z 23007G13MPS 9999 BKN042 02/M07 Q1004 R19/190050 NOSIG
  • 011030Z 23008G13MPS 9999 BKN049 02/M09 Q1004 R19/190050 NOSIG
  • 011000Z 23008MPS CAVOK 02/M10 Q1004 R19/190050 NOSIG
  • 010930Z 23007MPS CAVOK 02/M11 Q1004 R19/190050 NOSIG

TAF TAF UUWW
Valido dal 01 a 12 ore il 02 a 12 ore UTC


011057Z 0112/0212 24007G13MPS 9999 BKN016 TX02/0112Z TNM01/0203Z
TEMPO 0112/0115 24009G16MPS
BECMG 0115/0116 6000 OVC011
TEMPO 0116/0202 1500 SHSN FEW006 SCT012CB
TEMPO 0209/0212 -SHRASN SCT015CB



MetMap, La meteo Aeronautica in un colpo d'occhio ! - Copyright ORBIFLY Dicembre 2007 - Disclaimer

ORBIFLY MET'MAP TEAM :

Programmazione e sviluppo : Alexandra Zaïnal
Concezione : Baudouin d'Aumeries
Aiuto per la programmazione : Marc-Olivier Méhu
Supporto tecnico e logistico : Manuel Goepfert
Aiuto per la traduzione : Arnaldo La Scala

Contatto : metmap@orbifly.com




FONTI E CREDITI :

   NOAA